Time;durP1;ratioP1;P1;durP2;ratioP2;P2;SDS_P1;SDS_P2;PMS_P1;PMS_P2;Temp;Humidity;BMP_temperature;BMP_pressure;BME280_temperature;BME280_humidity;BME280_pressure;Samples;Min_cycle;Max_cycle;Signal;HPM_P1;HPM_P2
2022/12/29 00:04:14;;;;;;;234.20;213.45;;;;;;;9.78;100.00;99866.59;10622220;27;20040;-71
2022/12/29 00:09:18;;;;;;;340.10;304.13;;;;;;;9.63;100.00;99865.66;10621116;27;20043;-72
2022/12/29 00:35:48;;;;;;;42.85;40.85;;;;;;;8.81;100.00;99847.34;10620477;28;20407;-74
2022/12/29 00:46:10;;;;;;;81.00;76.30;;;;;;;8.91;100.00;99827.75;10619888;28;20438;-76
2022/12/29 00:51:12;;;;;;;118.47;111.38;;;;;;;9.07;100.00;99827.78;10617949;28;20061;-67
2022/12/29 00:56:15;;;;;;;61.47;58.10;;;;;;;9.19;100.00;99831.50;10623078;27;20043;-74
2022/12/29 01:01:17;;;;;;;256.48;235.05;;;;;;;9.22;100.00;99823.53;10627919;27;20407;-72
2022/12/29 01:06:19;;;;;;;92.07;87.28;;;;;;;9.28;100.00;99814.56;10628279;27;20073;-73
2022/12/29 01:11:22;;;;;;;67.80;64.47;;;;;;;9.40;100.00;99813.06;10627869;27;20047;-70
2022/12/29 01:16:23;;;;;;;107.43;99.07;;;;;;;9.47;100.00;99806.59;10625976;27;20088;-76
2022/12/29 01:21:26;;;;;;;50.88;48.15;;;;;;;9.56;100.00;99817.44;10626152;27;20047;-77
2022/12/29 01:26:29;;;;;;;108.95;102.43;;;;;;;9.60;100.00;99813.72;10627256;27;20051;-72
2022/12/29 01:31:31;;;;;;;146.27;133.75;;;;;;;9.68;100.00;99780.28;10626791;27;20051;-71
2022/12/29 01:36:33;;;;;;;133.43;122.90;;;;;;;9.74;100.00;99787.75;10626290;27;20061;-69
2022/12/29 01:41:36;;;;;;;336.63;268.95;;;;;;;9.92;100.00;99772.00;10627048;27;20099;-77
2022/12/29 01:46:42;;;;;;;172.32;158.52;;;;;;;9.93;100.00;99768.50;10624111;27;20055;-69
2022/12/29 01:51:49;;;;;;;160.70;150.45;;;;;;;9.99;100.00;99782.94;10626243;27;20047;-70
2022/12/29 01:56:57;;;;;;;89.38;85.07;;;;;;;10.07;100.00;99769.47;10625935;27;20045;-72
2022/12/29 02:02:00;;;;;;;169.25;160.20;;;;;;;10.14;100.00;99786.44;10626146;27;20096;-68
2022/12/29 02:07:08;;;;;;;199.82;185.52;;;;;;;10.13;100.00;99769.94;10625216;27;20051;-72
2022/12/29 02:12:14;;;;;;;161.98;153.57;;;;;;;10.18;100.00;99767.91;10625586;27;20444;-77
2022/12/29 02:17:37;;;;;;;180.48;168.75;;;;;;;10.23;100.00;99754.59;10622495;27;20047;-69
2022/12/29 02:23:03;;;;;;;266.73;246.52;;;;;;;10.21;100.00;99771.25;10624800;27;20280;-71
2022/12/29 02:28:40;;;;;;;226.35;212.00;;;;;;;10.24;100.00;99740.66;10625344;27;20527;-65
2022/12/29 02:34:04;;;;;;;316.08;291.35;;;;;;;10.17;100.00;99734.94;10624049;27;20451;-76
2022/12/29 02:39:21;;;;;;;250.48;234.55;;;;;;;10.05;100.00;99735.66;10623872;27;20047;-72
2022/12/29 02:44:33;;;;;;;121.18;114.90;;;;;;;9.99;100.00;99730.81;10623889;27;20077;-69
2022/12/29 02:49:48;;;;;;;145.13;137.57;;;;;;;10.01;100.00;99737.63;10621679;27;20054;-67
2022/12/29 02:54:50;;;;;;;155.55;145.68;;;;;;;9.98;100.00;99735.19;10624180;27;20051;-66
2022/12/29 02:59:59;;;;;;;83.32;79.40;;;;;;;9.98;100.00;99723.91;10622873;27;20104;-69
2022/12/29 03:05:21;;;;;;;287.05;268.42;;;;;;;9.98;100.00;99724.75;10622687;27;20519;-70
2022/12/29 03:10:36;;;;;;;;;;;;;;;9.97;100.00;99717.03;10623088;27;20579;-68
2022/12/29 03:16:01;;;;;;;109.57;102.43;;;;;;;10.00;100.00;99722.91;10622807;27;20423;-71
2022/12/29 03:21:13;;;;;;;133.88;124.28;;;;;;;9.92;100.00;99715.53;10620031;27;20141;-69
2022/12/29 03:26:19;;;;;;;281.55;265.20;;;;;;;9.86;100.00;99722.84;10622360;27;20047;-69
2022/12/29 03:31:25;;;;;;;212.02;197.13;;;;;;;9.74;100.00;99707.00;10621686;27;20086;-68
2022/12/29 03:36:39;;;;;;;217.05;204.77;;;;;;;9.57;100.00;99720.13;10622578;27;20051;-71
2022/12/29 03:41:46;;;;;;;174.77;158.55;;;;;;;9.39;100.00;99725.44;10622605;27;20092;-74
2022/12/29 03:46:47;;;;;;;210.27;198.38;;;;;;;9.34;100.00;99727.47;10618750;27;20444;-71
2022/12/29 03:51:50;;;;;;;389.00;354.42;;;;;;;9.37;100.00;99720.31;10621181;27;20149;-74
2022/12/29 03:56:52;;;;;;;329.58;302.60;;;;;;;9.31;100.00;99715.44;10621090;27;20058;-72
2022/12/29 04:01:54;;;;;;;400.10;359.48;;;;;;;9.33;100.00;99738.78;10621195;27;20114;-69
2022/12/29 04:06:57;;;;;;;;;;;;;;;9.09;100.00;99747.00;10621154;27;20057;-68
2022/12/29 04:11:59;;;;;;;146.07;136.48;;;;;;;8.89;100.00;99731.56;10620722;27;19923;-73
2022/12/29 04:17:01;;;;;;;255.30;229.90;;;;;;;8.72;100.00;99740.25;10618145;27;20047;-71
2022/12/29 04:22:04;;;;;;;1999.90;999.90;;;;;;;8.59;100.00;99765.22;10621280;28;20096;-71
2022/12/29 04:27:05;;;;;;;149.55;140.60;;;;;;;8.59;100.00;99778.22;10620228;28;20486;-69
2022/12/29 04:32:07;;;;;;;168.77;158.55;;;;;;;8.66;100.00;99787.41;10624839;27;20505;-71
2022/12/29 04:37:10;;;;;;;171.30;160.85;;;;;;;8.60;100.00;99777.31;10628678;27;20050;-69
2022/12/29 04:42:12;;;;;;;1138.60;616.90;;;;;;;8.56;100.00;99775.78;10629459;27;20101;-69
2022/12/29 04:47:14;;;;;;;187.68;174.20;;;;;;;8.55;100.00;99784.50;10626958;27;20051;-68
2022/12/29 04:52:18;;;;;;;273.60;224.13;;;;;;;8.48;100.00;99789.97;10628471;27;20092;-74
2022/12/29 04:57:20;;;;;;;281.38;255.30;;;;;;;8.53;100.00;99802.78;10628305;27;20061;-70
2022/12/29 05:02:22;;;;;;;270.50;224.20;;;;;;;8.70;100.00;99782.88;10628519;27;20047;-68
2022/12/29 05:07:25;;;;;;;1535.03;782.97;;;;;;;8.61;100.00;99799.78;10627709;27;20092;-69
2022/12/29 05:12:31;;;;;;;179.15;166.45;;;;;;;8.49;100.00;99807.25;10627490;27;20593;-69
2022/12/29 05:17:33;;;;;;;137.07;129.48;;;;;;;8.37;100.00;99816.53;10624896;27;20047;-70
2022/12/29 05:22:36;;;;;;;138.07;130.88;;;;;;;8.49;100.00;99820.25;10626955;27;20051;-68
2022/12/29 05:27:38;;;;;;;134.15;125.05;;;;;;;8.58;100.00;99816.38;10627316;27;20073;-67
2022/12/29 05:32:40;;;;;;;168.18;155.75;;;;;;;8.61;100.00;99824.03;10627250;27;20092;-74
2022/12/29 05:37:43;;;;;;;1139.07;627.88;;;;;;;8.66;100.00;99823.81;10626530;27;20100;-67
2022/12/29 05:42:46;;;;;;;277.05;253.48;;;;;;;8.73;100.00;99824.34;10625361;27;20531;-68
2022/12/29 05:47:47;;;;;;;248.48;230.95;;;;;;;8.92;100.00;99829.44;10624032;27;20039;-68
2022/12/29 05:52:50;;;;;;;196.80;183.45;;;;;;;8.96;100.00;99830.94;10625986;27;20054;-69
2022/12/29 05:57:52;;;;;;;297.10;273.63;;;;;;;9.14;100.00;99833.53;10625621;27;20138;-67
2022/12/29 06:02:54;;;;;;;183.13;171.43;;;;;;;9.19;100.00;99841.06;10625900;27;20050;-71
2022/12/29 06:07:57;;;;;;;199.27;188.27;;;;;;;9.16;100.00;99839.47;10625701;27;20074;-68
2022/12/29 06:12:59;;;;;;;109.75;104.43;;;;;;;9.17;100.00;99848.97;10625782;27;20100;-69
2022/12/29 06:18:01;;;;;;;141.48;134.25;;;;;;;9.22;100.00;99839.16;10622821;27;20107;-66
2022/12/29 06:23:05;;;;;;;260.00;243.38;;;;;;;9.22;100.00;99851.34;10624516;27;20560;-67
2022/12/29 06:28:07;;;;;;;154.07;139.65;;;;;;;9.21;100.00;99814.03;10624611;27;20092;-69
2022/12/29 06:33:08;;;;;;;125.45;118.63;;;;;;;9.26;100.00;99804.22;10624790;27;20116;-67
2022/12/29 06:38:12;;;;;;;325.20;301.00;;;;;;;9.33;100.00;99806.50;10624095;27;20057;-76
2022/12/29 06:43:14;;;;;;;346.90;316.20;;;;;;;9.36;100.00;99807.19;10623679;27;20395;-73
2022/12/29 06:48:15;;;;;;;304.80;282.38;;;;;;;9.28;100.00;99825.81;10621082;27;20100;-70
2022/12/29 06:53:18;;;;;;;227.68;209.75;;;;;;;9.33;100.00;99811.69;10623036;27;20043;-68
2022/12/29 06:58:20;;;;;;;244.18;226.80;;;;;;;9.28;100.00;99804.97;10623411;27;20104;-71
2022/12/29 07:03:22;;;;;;;171.23;161.38;;;;;;;9.26;100.00;99821.59;10623087;27;20050;-69
2022/12/29 07:08:25;;;;;;;184.93;173.48;;;;;;;9.31;100.00;99837.81;10622618;27;20081;-69
2022/12/29 07:13:26;;;;;;;109.63;103.72;;;;;;;9.33;100.00;99819.50;10622650;27;20051;-69
2022/12/29 07:18:28;;;;;;;329.52;297.20;;;;;;;9.34;100.00;99842.88;10620220;27;20055;-69
2022/12/29 07:23:31;;;;;;;232.32;214.27;;;;;;;9.33;100.00;99849.00;10622444;27;20082;-71
2022/12/29 07:28:34;;;;;;;678.58;416.27;;;;;;;9.39;100.00;99858.25;10621735;27;20455;-70
2022/12/29 07:33:36;;;;;;;264.25;235.23;;;;;;;9.30;100.00;99871.78;10622370;27;20099;-74
2022/12/29 07:38:39;;;;;;;234.82;212.02;;;;;;;9.29;100.00;99857.91;10622327;27;20043;-68
2022/12/29 07:43:41;;;;;;;355.10;328.83;;;;;;;9.18;100.00;99863.69;10621267;27;20474;-69
2022/12/29 07:48:43;;;;;;;366.98;310.85;;;;;;;9.21;100.00;99876.50;10618798;27;20490;-75
2022/12/29 07:53:46;;;;;;;193.73;181.63;;;;;;;9.28;100.00;99861.44;10621033;27;20605;-67
2022/12/29 07:58:47;;;;;;;98.85;93.45;;;;;;;9.22;100.00;99869.56;10621448;27;20047;-68
2022/12/29 08:03:49;;;;;;;303.00;271.58;;;;;;;9.24;100.00;99867.72;10620979;27;20054;-72
2022/12/29 08:08:52;;;;;;;;;;;;;;;9.33;100.00;99882.00;10621522;27;20544;-65
2022/12/29 08:13:54;;;;;;;248.68;230.00;;;;;;;9.37;100.00;99884.38;10620973;27;20427;-72
2022/12/29 08:18:57;;;;;;;141.02;132.70;;;;;;;9.37;100.00;99879.16;10618412;27;20051;-67
2022/12/29 08:24:00;;;;;;;387.75;356.60;;;;;;;9.37;100.00;99879.16;10620481;28;20387;-66
2022/12/29 08:29:02;;;;;;;825.15;550.53;;;;;;;9.38;100.00;99877.41;10620706;28;20071;-72
2022/12/29 08:34:04;;;;;;;298.90;270.83;;;;;;;9.44;100.00;99878.84;10620498;28;20040;-72
2022/12/29 08:39:07;;;;;;;188.00;175.85;;;;;;;9.47;100.00;99884.72;10620305;28;20486;-71
2022/12/29 08:44:09;;;;;;;141.73;134.50;;;;;;;9.48;100.00;99883.78;10620442;28;20482;-67
2022/12/29 08:49:11;;;;;;;;;;;;;;;9.52;100.00;99885.31;10618503;28;20047;-71
2022/12/29 08:54:14;;;;;;;55.87;52.60;;;;;;;9.53;100.00;99886.16;10619993;28;19961;-66
2022/12/29 08:59:15;;;;;;;360.70;313.05;;;;;;;9.58;100.00;99881.53;10619772;28;20050;-72
2022/12/29 09:04:17;;;;;;;541.42;362.65;;;;;;;9.59;100.00;99882.38;10620096;28;20058;-70
2022/12/29 09:09:20;;;;;;;235.55;217.70;;;;;;;9.64;100.00;99891.63;10619232;28;20473;-69
2022/12/29 09:14:22;;;;;;;307.15;281.65;;;;;;;9.66;100.00;99912.41;10619927;28;20534;-68
2022/12/29 09:19:24;;;;;;;31.98;29.83;;;;;;;9.63;100.00;99899.53;10622591;27;20050;-75
2022/12/29 09:24:27;;;;;;;38.28;35.10;;;;;;;9.57;100.00;99918.09;10628078;27;20047;-70
2022/12/29 09:29:29;;;;;;;46.38;42.80;;;;;;;9.56;100.00;99929.44;10626824;27;20051;-68
2022/12/29 09:34:30;;;;;;;129.27;113.07;;;;;;;9.37;100.00;99930.38;10626803;27;20186;-68
2022/12/29 09:39:33;;;;;;;77.22;64.03;;;;;;;9.34;100.00;99933.19;10626847;27;20047;-73
2022/12/29 09:44:53;;;;;;;17.83;16.40;;;;;;;9.35;100.00;99950.47;10626339;27;20046;-73
2022/12/29 09:49:59;;;;;;;21.52;19.88;;;;;;;9.27;100.00;99959.50;10624053;27;20044;-70
2022/12/29 09:55:09;;;;;;;14.93;13.75;;;;;;;9.18;100.00;99962.59;10625877;27;20047;-75
2022/12/29 10:00:17;;;;;;;11.85;10.82;;;;;;;9.20;100.00;99989.38;10625740;27;20542;-70
2022/12/29 10:05:32;;;;;;;65.80;49.42;;;;;;;8.99;100.00;99999.09;10625664;27;20074;-70
2022/12/29 10:10:43;;;;;;;792.20;515.80;;;;;;;8.77;100.00;100015.78;10626027;27;20482;-69
2022/12/29 10:16:02;;;;;;;232.63;220.10;;;;;;;8.43;100.00;100036.38;10624822;27;20547;-72
2022/12/29 10:21:18;;;;;;;264.67;244.50;;;;;;;8.38;100.00;100053.94;10622341;27;20439;-76
2022/12/29 10:26:27;;;;;;;737.08;469.15;;;;;;;8.33;100.00;100084.50;10624517;27;20478;-70
2022/12/29 10:31:38;;;;;;;1999.90;999.90;;;;;;;8.22;100.00;100085.81;10624405;27;20418;-68
2022/12/29 10:36:48;;;;;;;1106.47;598.42;;;;;;;8.27;100.00;100101.22;10624478;27;20066;-69
2022/12/29 10:42:00;;;;;;;727.97;454.77;;;;;;;8.25;100.00;100098.69;10624603;27;20535;-69
2022/12/29 10:47:10;;;;;;;300.42;275.13;;;;;;;8.32;100.00;100127.03;10622094;27;20104;-69
2022/12/29 10:52:15;;;;;;;1999.90;999.90;;;;;;;8.25;100.00;100132.50;10624291;27;20059;-76
2022/12/29 10:57:27;;;;;;;1999.90;999.90;;;;;;;8.22;100.00;100131.78;10624024;27;20047;-69
2022/12/29 11:03:09;;;;;;;640.65;380.33;;;;;;;7.93;100.00;100144.28;10623318;27;20043;-68
2022/12/29 11:08:17;;;;;;;1999.90;999.90;;;;;;;7.73;100.00;100157.19;10622848;27;20051;-69
2022/12/29 11:13:28;;;;;;;1999.90;999.90;;;;;;;7.79;100.00;100176.03;10622821;27;20194;-69
2022/12/29 11:18:39;;;;;;;1999.90;999.90;;;;;;;7.84;100.00;100166.31;10620041;27;20054;-72
2022/12/29 11:23:42;;;;;;;1074.38;567.45;;;;;;;7.98;100.00;100176.13;10622751;27;20047;-71
2022/12/29 11:29:04;;;;;;;249.65;232.55;;;;;;;8.15;100.00;100185.81;10621831;27;20138;-66
2022/12/29 11:34:08;;;;;;;168.50;157.95;;;;;;;8.29;100.00;100179.16;10621929;27;20053;-68
2022/12/29 11:39:32;;;;;;;642.58;382.42;;;;;;;8.33;100.00;100170.31;10621520;27;20043;-68
2022/12/29 11:44:45;;;;;;;716.70;449.42;;;;;;;8.44;100.00;100183.69;10622851;27;20043;-71
2022/12/29 11:49:51;;;;;;;1999.90;999.90;;;;;;;8.35;100.00;100184.91;10618740;27;20146;-65
2022/12/29 11:54:57;;;;;;;1094.22;586.97;;;;;;;8.51;100.00;100186.84;10621246;27;20064;-72
2022/12/29 12:00:03;;;;;;;230.93;215.65;;;;;;;8.73;100.00;100184.16;10621011;27;20076;-68
2022/12/29 12:05:17;;;;;;;1999.90;999.90;;;;;;;8.79;100.00;100166.59;10621505;27;20156;-69
2022/12/29 12:10:27;;;;;;;1120.70;609.05;;;;;;;8.87;100.00;100180.09;10620866;27;20080;-70
2022/12/29 12:15:41;;;;;;;1096.05;590.38;;;;;;;8.98;100.00;100170.03;10620634;27;20431;-67
2022/12/29 12:20:50;;;;;;;1999.90;999.90;;;;;;;8.99;100.00;100174.31;10617797;27;20059;-72
2022/12/29 12:26:03;;;;;;;699.00;435.80;;;;;;;9.08;100.00;100161.78;10621255;28;20292;-70
2022/12/29 12:31:22;;;;;;;166.13;154.90;;;;;;;9.08;100.00;100173.06;10620745;28;20051;-71
2022/12/29 12:36:58;;;;;;;1999.90;999.90;;;;;;;9.31;100.00;100159.84;10620398;28;20057;-69
2022/12/29 12:42:24;;;;;;;698.95;431.50;;;;;;;9.60;100.00;100152.38;10619883;27;20051;-71
2022/12/29 12:47:55;;;;;;;208.02;195.25;;;;;;;9.73;100.00;100152.63;10617635;28;20067;-72
2022/12/29 12:53:31;;;;;;;1158.50;645.28;;;;;;;9.57;100.00;100157.72;10624082;27;20054;-68
2022/12/29 12:58:44;;;;;;;400.77;365.40;;;;;;;9.45;100.00;100160.03;10628413;27;20522;-71
2022/12/29 13:04:06;;;;;;;626.88;370.13;;;;;;;9.43;100.00;100164.47;10627610;27;20051;-67
2022/12/29 13:09:30;;;;;;;1999.90;999.90;;;;;;;9.28;100.00;100177.31;10627239;27;20406;-70
2022/12/29 13:14:53;;;;;;;1999.90;999.90;;;;;;;9.17;100.00;100174.34;10627478;27;20133;-68
2022/12/29 13:20:13;;;;;;;1999.90;999.90;;;;;;;9.01;100.00;100193.28;10625350;27;20058;-68
2022/12/29 13:25:32;;;;;;;1999.90;999.90;;;;;;;8.70;100.00;100219.88;10627956;27;20047;-66
2022/12/29 13:30:46;;;;;;;625.20;368.35;;;;;;;8.23;100.00;100227.91;10626762;27;20426;-69
2022/12/29 13:36:01;;;;;;;63.58;59.60;;;;;;;7.94;100.00;100242.94;10626618;27;20065;-71
2022/12/29 13:41:09;;;;;;;133.38;126.20;;;;;;;7.83;100.00;100251.19;10626900;27;20067;-70
2022/12/29 13:46:24;;;;;;;86.70;81.18;;;;;;;7.76;100.00;100269.69;10626410;27;20129;-71
2022/12/29 13:51:28;;;;;;;108.20;100.82;;;;;;;7.64;100.00;100277.06;10624759;27;20047;-69
2022/12/29 13:56:40;;;;;;;74.78;70.93;;;;;;;7.54;100.00;100249.75;10625816;27;20454;-71
2022/12/29 14:01:51;;;;;;;116.00;108.43;;;;;;;7.49;100.00;100273.28;10625456;27;20149;-73
2022/12/29 14:07:07;;;;;;;67.00;63.42;;;;;;;7.52;100.00;100280.13;10626141;27;20119;-71
2022/12/29 14:12:36;;;;;;;75.22;71.50;;;;;;;7.65;100.00;100291.72;10625745;27;20051;-69
2022/12/29 14:17:41;;;;;;;68.30;64.40;;;;;;;7.72;100.00;100295.78;10623031;27;20077;-68
2022/12/29 14:22:59;;;;;;;147.15;137.07;;;;;;;7.71;100.00;100288.91;10624493;27;20502;-77
2022/12/29 14:28:17;;;;;;;147.80;139.50;;;;;;;7.72;100.00;100280.19;10624953;27;20039;-73
2022/12/29 14:33:21;;;;;;;92.40;87.85;;;;;;;7.82;100.00;100277.22;10624807;27;20047;-69
2022/12/29 14:38:29;;;;;;;1999.90;999.90;;;;;;;7.81;100.00;100298.91;10624682;27;20100;-70
2022/12/29 14:43:31;;;;;;;1999.90;999.90;;;;;;;7.82;100.00;100300.59;10624107;27;20046;-69
2022/12/29 14:48:43;;;;;;;1999.90;999.90;;;;;;;7.82;100.00;100298.00;10622137;27;20115;-69
2022/12/29 14:53:50;;;;;;;1999.90;999.90;;;;;;;7.85;100.00;100305.69;10623704;27;20091;-70
2022/12/29 14:58:55;;;;;;;1999.90;999.90;;;;;;;7.87;100.00;100314.25;10623596;27;20096;-70
2022/12/29 15:04:04;;;;;;;1999.90;999.90;;;;;;;7.86;100.00;100309.97;10623037;27;20436;-69
2022/12/29 15:09:25;;;;;;;1999.90;999.90;;;;;;;7.84;100.00;100311.78;10623469;27;20073;-69
2022/12/29 15:14:35;;;;;;;1999.90;999.90;;;;;;;7.86;100.00;100315.16;10622497;27;20055;-69
2022/12/29 15:19:37;;;;;;;1999.90;999.90;;;;;;;7.82;100.00;100311.00;10620062;27;20081;-71
2022/12/29 15:24:44;;;;;;;1999.90;999.90;;;;;;;7.81;100.00;100317.97;10622721;27;20055;-72
2022/12/29 15:29:47;;;;;;;1035.75;533.22;;;;;;;7.64;100.00;100313.41;10622464;27;20100;-72
2022/12/29 15:34:52;;;;;;;1999.90;999.90;;;;;;;7.60;100.00;100312.69;10622300;27;20061;-66
2022/12/29 15:39:57;;;;;;;1999.90;999.90;;;;;;;7.51;100.00;100306.97;10622298;27;20062;-71
2022/12/29 15:44:59;;;;;;;1999.90;999.90;;;;;;;7.54;100.00;100312.06;10622216;27;20279;-74
2022/12/29 15:50:06;;;;;;;1999.90;999.90;;;;;;;7.45;100.00;100313.25;10619545;27;20365;-71
2022/12/29 15:55:25;;;;;;;1999.90;999.90;;;;;;;7.35;100.00;100323.13;10621446;27;20066;-70
2022/12/29 16:00:30;;;;;;;1999.90;999.90;;;;;;;7.22;100.00;100333.97;10621556;27;20109;-73
2022/12/29 16:05:37;;;;;;;1999.90;999.90;;;;;;;7.17;100.00;100330.72;10621071;27;20047;-73
2022/12/29 16:10:44;;;;;;;1999.90;999.90;;;;;;;7.12;100.00;100339.56;10620722;27;20071;-76
2022/12/29 16:15:48;;;;;;;1999.90;999.90;;;;;;;7.01;100.00;100350.34;10621371;27;20054;-72
2022/12/29 16:20:50;;;;;;;124.93;116.65;;;;;;;6.98;100.00;100355.63;10618225;27;20159;-68
2022/12/29 16:25:57;;;;;;;135.38;126.30;;;;;;;6.89;100.00;100352.47;10624060;27;20386;-72
2022/12/29 16:31:03;;;;;;;1999.90;999.90;;;;;;;6.82;100.00;100369.13;10635084;27;20074;-71
2022/12/29 16:36:26;;;;;;;247.15;228.77;;;;;;;6.81;100.00;100377.81;10635273;27;20047;-71
2022/12/29 16:41:32;;;;;;;1999.90;999.90;;;;;;;6.76;100.00;100369.31;10634400;27;20460;-72
2022/12/29 16:46:34;;;;;;;1999.90;999.90;;;;;;;6.78;100.00;100375.31;10634345;27;20051;-69
2022/12/29 16:51:37;;;;;;;154.85;141.13;;;;;;;6.82;100.00;100382.09;10632831;27;20108;-72
2022/12/29 16:56:45;;;;;;;675.30;411.23;;;;;;;6.80;100.00;100378.69;10634136;27;20412;-73
2022/12/29 17:01:47;;;;;;;139.55;130.98;;;;;;;6.69;100.00;100382.53;10634641;27;20125;-69
2022/12/29 17:06:49;;;;;;;275.30;253.20;;;;;;;6.67;100.00;100389.50;10633795;27;20081;-78
2022/12/29 17:11:56;;;;;;;170.98;161.00;;;;;;;6.62;100.00;100394.00;10633856;27;20474;-71
2022/12/29 17:16:59;;;;;;;1999.90;999.90;;;;;;;6.51;100.00;100394.34;10631624;27;20133;-69
2022/12/29 17:22:02;;;;;;;1999.90;999.90;;;;;;;6.59;100.00;100411.38;10633413;27;20418;-72
2022/12/29 17:27:05;;;;;;;1551.88;798.65;;;;;;;6.53;100.00;100402.06;10633900;27;20051;-77
2022/12/29 17:32:14;;;;;;;1999.90;999.90;;;;;;;6.38;100.00;100417.22;10633881;27;20086;-71
2022/12/29 17:37:33;;;;;;;1999.90;999.90;;;;;;;6.40;100.00;100418.00;10630930;27;20410;-71
2022/12/29 17:42:42;;;;;;;1999.90;999.90;;;;;;;6.44;100.00;100437.75;10626644;27;20051;-71
2022/12/29 17:47:44;;;;;;;1999.90;999.90;;;;;;;6.24;100.00;100448.75;10622818;27;20099;-75
2022/12/29 17:52:51;;;;;;;166.68;154.43;;;;;;;6.14;100.00;100443.00;10625848;27;20040;-72
2022/12/29 17:57:54;;;;;;;210.18;197.85;;;;;;;6.16;100.00;100443.78;10626337;27;20055;-71
2022/12/29 18:02:58;;;;;;;657.75;396.67;;;;;;;6.10;100.00;100451.78;10626700;27;20053;-71
2022/12/29 18:08:00;;;;;;;180.43;169.50;;;;;;;6.05;100.00;100453.63;10625420;27;20147;-74
2022/12/29 18:13:03;;;;;;;1112.63;605.42;;;;;;;6.03;100.00;100466.63;10625711;27;20051;-70
2022/12/29 18:18:13;;;;;;;1999.90;999.90;;;;;;;6.04;100.00;100473.53;10623207;27;20059;-69
2022/12/29 18:23:22;;;;;;;1548.65;794.53;;;;;;;6.05;100.00;100480.41;10625305;27;20053;-69
2022/12/29 18:28:26;;;;;;;171.60;161.18;;;;;;;6.00;100.00;100479.66;10624604;27;20482;-70
2022/12/29 18:33:29;;;;;;;1999.90;999.90;;;;;;;5.99;100.00;100482.28;10624380;27;20064;-70
2022/12/29 18:38:31;;;;;;;701.28;429.38;;;;;;;5.92;100.00;100485.03;10624228;27;20065;-70
2022/12/29 18:43:34;;;;;;;1999.90;999.90;;;;;;;5.87;100.00;100492.09;10624626;27;20113;-70
2022/12/29 18:48:36;;;;;;;1999.90;999.90;;;;;;;5.83;100.00;100500.00;10620271;27;20130;-69
2022/12/29 18:53:38;;;;;;;;;;;;;;;5.95;100.00;100504.00;10624460;27;20062;-72
2022/12/29 18:58:41;;;;;;;1999.90;999.90;;;;;;;5.90;100.00;100504.97;10623399;27;20367;-70
2022/12/29 19:03:43;;;;;;;1550.32;797.05;;;;;;;5.88;100.00;100498.97;10623437;27;20136;-71
2022/12/29 19:08:45;;;;;;;1073.80;569.42;;;;;;;5.85;100.00;100503.41;10622901;27;20438;-69
2022/12/29 19:13:48;;;;;;;189.73;176.48;;;;;;;5.93;100.00;100504.03;10622882;27;20565;-69
2022/12/29 19:18:52;;;;;;;217.00;199.48;;;;;;;6.01;100.00;100506.41;10620394;27;20082;-79
2022/12/29 19:23:53;;;;;;;1999.90;999.90;;;;;;;5.94;100.00;100518.69;10623102;27;20088;-72
2022/12/29 19:29:00;;;;;;;179.23;164.10;;;;;;;5.96;100.00;100526.41;10621989;27;20088;-70
2022/12/29 19:34:02;;;;;;;679.70;416.90;;;;;;;5.92;100.00;100536.84;10621687;27;20452;-69
2022/12/29 19:39:04;;;;;;;1106.85;601.03;;;;;;;5.91;100.00;100527.38;10621877;27;20047;-69
2022/12/29 19:44:08;;;;;;;1531.10;779.45;;;;;;;5.92;100.00;100536.84;10621926;27;20107;-70
2022/12/29 19:49:12;;;;;;;1999.90;999.90;;;;;;;5.95;100.00;100535.09;10619639;27;20151;-70
2022/12/29 19:54:13;;;;;;;1123.90;614.15;;;;;;;6.09;100.00;100537.31;10621435;27;20085;-73
2022/12/29 19:59:16;;;;;;;1550.75;797.78;;;;;;;6.01;100.00;100540.06;10621386;27;20122;-69
2022/12/29 20:04:18;;;;;;;1999.90;999.90;;;;;;;6.00;100.00;100543.56;10620385;27;20526;-76
2022/12/29 20:09:20;;;;;;;1542.05;789.20;;;;;;;6.01;100.00;100551.28;10621284;27;20532;-73
2022/12/29 20:14:23;;;;;;;1120.97;607.20;;;;;;;6.03;100.00;100538.31;10621129;27;20086;-76
2022/12/29 20:19:25;;;;;;;1999.90;999.90;;;;;;;6.02;100.00;100552.16;10618674;27;20100;-73
2022/12/29 20:24:27;;;;;;;1112.50;596.17;;;;;;;6.01;100.00;100546.13;10621476;27;20061;-69
2022/12/29 20:29:37;;;;;;;1277.40;622.30;;;;;;;6.02;100.00;100536.59;10620693;28;20122;-76
2022/12/29 20:34:40;;;;;;;302.13;276.90;;;;;;;6.03;100.00;100553.84;10620632;27;20134;-65
2022/12/29 20:39:44;;;;;;;1999.90;999.90;;;;;;;5.98;100.00;100559.13;10620159;28;20061;-66
2022/12/29 20:44:49;;;;;;;1126.43;614.95;;;;;;;6.01;100.00;100560.78;10620167;28;20085;-64
2022/12/29 20:49:50;;;;;;;1999.90;999.90;;;;;;;5.97;100.00;100564.38;10617579;28;20073;-64
2022/12/29 20:54:52;;;;;;;182.77;167.55;;;;;;;5.98;100.00;100560.88;10620783;27;20063;-64
2022/12/29 20:59:55;;;;;;;207.07;194.25;;;;;;;5.96;100.00;100576.47;10620459;28;20053;-66
2022/12/29 21:04:57;;;;;;;40.08;37.45;;;;;;;5.87;100.00;100580.16;10619771;28;20061;-65
2022/12/29 21:09:59;;;;;;;70.32;64.00;;;;;;;5.87;100.00;100594.84;10619526;28;20104;-65
2022/12/29 21:15:02;;;;;;;68.03;63.35;;;;;;;5.82;100.00;100587.22;10625172;27;20065;-66
2022/12/29 21:20:04;;;;;;;137.27;124.00;;;;;;;5.98;100.00;100576.41;10624885;27;20085;-66
2022/12/29 21:25:06;;;;;;;36.33;33.63;;;;;;;5.84;100.00;100567.28;10627614;27;20054;-65
2022/12/29 21:30:12;;;;;;;174.82;146.25;;;;;;;5.73;100.00;100571.91;10627133;27;20132;-65
2022/12/29 21:35:13;;;;;;;202.80;184.93;;;;;;;5.82;100.00;100579.44;10626997;27;20456;-67
2022/12/29 21:40:15;;;;;;;241.88;223.15;;;;;;;5.78;100.00;100585.56;10627136;27;20043;-65
2022/12/29 21:45:25;;;;;;;38.15;35.83;;;;;;;5.74;100.00;100591.72;10626779;27;20571;-63
2022/12/29 21:50:26;;;;;;;97.72;91.20;;;;;;;5.65;100.00;100595.44;10623818;27;20127;-64
2022/12/29 21:55:28;;;;;;;136.35;127.05;;;;;;;5.64;100.00;100586.78;10626524;27;20092;-64
2022/12/29 22:16:31;;;;;;;122.72;115.25;;;;;;;5.66;100.00;100638.53;10625627;27;20134;-66
2022/12/29 22:21:32;;;;;;;94.97;88.97;;;;;;;5.60;100.00;100644.72;10622703;27;20094;-65
2022/12/29 22:26:34;;;;;;;117.78;110.78;;;;;;;5.64;100.00;100661.88;10625028;27;20064;-65
2022/12/29 22:31:37;;;;;;;149.82;137.60;;;;;;;5.57;100.00;100664.69;10624812;27;20082;-64
2022/12/29 22:36:39;;;;;;;94.15;87.05;;;;;;;5.60;100.00;100675.78;10624740;27;20062;-65
2022/12/29 22:41:41;;;;;;;83.00;78.30;;;;;;;5.37;100.00;100684.94;10624330;27;20062;-62
2022/12/29 22:46:45;;;;;;;61.95;58.42;;;;;;;5.41;100.00;100693.50;10623969;27;20472;-66
2022/12/29 22:51:47;;;;;;;219.68;206.98;;;;;;;5.43;100.00;100703.84;10621969;27;20489;-65
2022/12/29 22:56:48;;;;;;;171.43;159.32;;;;;;;5.32;100.00;100710.09;10623994;27;20043;-66
2022/12/29 23:01:51;;;;;;;373.27;192.00;;;;;;;5.36;100.00;100714.31;10623319;27;20430;-64
2022/12/29 23:06:53;;;;;;;90.82;84.72;;;;;;;5.38;100.00;100712.53;10623720;27;20055;-64
2022/12/29 23:11:55;;;;;;;95.47;87.78;;;;;;;5.33;100.00;100719.56;10622927;27;20361;-65
2022/12/29 23:16:58;;;;;;;63.05;59.03;;;;;;;5.29;100.00;100723.09;10620493;27;20138;-63
2022/12/29 23:22:00;;;;;;;44.17;41.55;;;;;;;5.32;100.00;100724.75;10622504;27;20090;-64